Royal Princess — ZCDV2 — position and weather

sailwx.info

Track history (hours):
 
Tides and Currents Weather Stations Pressure Air Temp Water Temp Dewpoint Dewpoint Depression Visibility Wind Speed Wind Dir Waves Ship Positions

Royal Princess

Last reported at 2017-Oct-16 19:21 UTC. Time now 2017-Oct-18 23:41 UTC.
Position N 43°45' W 005°21'.

Type: Passenger vessel. MMSI: 310530000.

Date/timePositionNaut miles runAvg speedWind from/ knotsBaromVisibWave heightAir tempDewpointWater temp
2017-Oct-16 19:21N 43°45' W 005°21'718.1
2017-Oct-16 18:57N 43°44' W 005°10'918.5
2017-Oct-16 18:27N 43°43' W 004°58'1818.7
2017-Oct-16 17:28N 43°41' W 004°33'1018.8
2017-Oct-16 16:58N 43°40' W 004°19'918.9
2017-Oct-16 16:30N 43°40' W 004°08'918.5
2017-Oct-16 16:00N 43°38' W 003°55'918.4
2017-Oct-16 15:30N 43°36' W 003°43'918.4
2017-Oct-16 15:00N 43°34' W 003°30'917.8
2017-Oct-16 14:30N 43°32' W 003°19'1615.7
2017-Oct-16 13:30N 43°21' W 003°02'1 2.0
2017-Oct-16 13:00N 43°20' W 003°01'0 0.0
2017-Oct-16 12:30N 43°20' W 003°01'0 0.0
2017-Oct-16 12:00N 43°20' W 003°01'0 0.0
2017-Oct-16 11:30N 43°20' W 003°01'0 0.0
2017-Oct-16 11:00N 43°20' W 003°01'0 0.0
2017-Oct-16 10:30N 43°20' W 003°01'0 0.0
2017-Oct-16 10:00N 43°20' W 003°01'0 0.0
2017-Oct-16 09:30N 43°20' W 003°01'0 0.0
2017-Oct-16 09:00N 43°20' W 003°01'0 0.0
2017-Oct-16 08:30N 43°20' W 003°01'0 0.0
2017-Oct-16 07:57N 43°20' W 003°01'0 0.0
2017-Oct-16 07:27N 43°20' W 003°01'0 0.0
2017-Oct-16 07:00N 43°20' W 003°01'0 0.0
2017-Oct-16 06:30N 43°20' W 003°01'0 0.0
2017-Oct-16 06:00N 43°20' W 003°01'0 0.0
2017-Oct-16 05:30N 43°20' W 003°01'0 0.6
2017-Oct-16 05:00N 43°21' W 003°02'4 7.9
2017-Oct-16 04:30N 43°24' W 003°05'5 9.8
2017-Oct-16 04:00N 43°28' W 003°08'816.2
2017-Oct-16 03:31N 43°36' W 003°12'815.9
2017-Oct-16 03:00N 43°43' W 003°16'816.2
2017-Oct-16 02:30N 43°51' W 003°19'816.2
2017-Oct-16 02:00N 43°59' W 003°23'1616.2
2017-Oct-16 01:00N 44°14' W 003°31'4016.3
2017-Oct-15 22:31N 44°51' W 003°51'116.0
2017-Oct-15 22:29N 44°52' W 003°51'916.0
2017-Oct-15 21:55N 45°01' W 003°55'716.2
2017-Oct-15 21:29N 45°07' W 003°59'816.3
2017-Oct-15 21:00N 45°14' W 004°04'816.4
2017-Oct-15 20:31N 45°22' W 004°07'816.6
2017-Oct-15 20:00N 45°30' W 004°11'816.1
2017-Oct-15 19:30N 45°37' W 004°15'816.4
2017-Oct-15 19:00N 45°45' W 004°19'816.5
2017-Oct-15 18:31N 45°53' W 004°23'816.3
2017-Oct-15 18:00N 46°01' W 004°27'816.8
2017-Oct-15 17:30N 46°08' W 004°31'917.3
2017-Oct-15 17:00N 46°17' W 004°35'817.4
2017-Oct-15 16:30N 46°25' W 004°40'917.0
2017-Oct-15 16:00N 46°33' W 004°44'816.8
2017-Oct-15 15:30N 46°41' W 004°48'817.0
2017-Oct-15 15:00N 46°49' W 004°52'1717.2
2017-Oct-15 14:00N 47°05' W 005°01'917.0
2017-Oct-15 13:30N 47°13' W 005°05'816.9
2017-Oct-15 13:00N 47°21' W 005°10'816.9
2017-Oct-15 12:30N 47°29' W 005°14'816.7
2017-Oct-15 12:01N 47°36' W 005°18'816.4
2017-Oct-15 11:30N 47°44' W 005°22'816.0
2017-Oct-15 11:00N 47°52' W 005°26'815.1
2017-Oct-15 10:30N 47°59' W 005°27'815.3
2017-Oct-15 10:01N 48°07' W 005°26'815.2
2017-Oct-15 09:30N 48°14' W 005°26'815.2
2017-Oct-15 09:00N 48°22' W 005°26'1214.9
2017-Oct-15 08:13N 48°33' W 005°21'516.3
2017-Oct-15 07:54N 48°37' W 005°16'616.3
2017-Oct-15 07:30N 48°42' W 005°09'816.6
2017-Oct-15 07:00N 48°47' W 004°60'816.9
2017-Oct-15 06:30N 48°53' W 004°50'816.8
2017-Oct-15 06:00N 48°59' W 004°40'816.7
2017-Oct-15 05:30N 49°04' W 004°31'816.4
2017-Oct-15 05:00N 49°10' W 004°22'816.0
2017-Oct-15 04:30N 49°15' W 004°12'815.5
2017-Oct-15 04:00N 49°19' W 004°03'612.7
2017-Oct-15 03:30N 49°24' W 003°56'612.5
2017-Oct-15 03:00N 49°28' W 003°49'612.5
2017-Oct-15 02:30N 49°33' W 003°42'612.5
2017-Oct-15 02:01N 49°37' W 003°35'612.3
2017-Oct-15 01:31N 49°41' W 003°28'612.5
2017-Oct-15 01:01N 49°45' W 003°21'713.2
2017-Oct-15 00:31N 49°49' W 003°13'713.9
2017-Oct-15 00:01N 49°54' W 003°05'714.3
2017-Oct-14 23:31N 49°58' W 002°56'815.1
2017-Oct-14 23:00N 50°00' W 002°45'815.6
2017-Oct-14 22:31N 50°02' W 002°33'1216.1
2017-Oct-14 21:47N 50°06' W 002°16'516.5
2017-Oct-14 21:30N 50°08' W 002°09'816.6
2017-Oct-14 21:01N 50°12' W 001°58'816.2
2017-Oct-14 20:31N 50°16' W 001°47'815.9
2017-Oct-14 20:01N 50°20' W 001°37'815.1
2017-Oct-14 19:30N 50°25' W 001°28'815.2
2017-Oct-14 19:01N 50°28' W 001°17'714.7
2017-Oct-14 18:30N 50°32' W 001°07'713.8
2017-Oct-14 18:01N 50°37' W 001°00'611.0
2017-Oct-14 17:30N 50°43' W 000°59'714.2
2017-Oct-14 17:00N 50°46' W 001°09'612.2
2017-Oct-14 16:30N 50°48' W 001°18'5 9.8
2017-Oct-14 16:00N 50°52' W 001°22'3 6.7
2017-Oct-14 15:30N 50°54' W 001°26'0 0.4
2017-Oct-14 14:56N 50°54' W 001°26'0 0.0
2017-Oct-14 14:26N 50°54' W 001°26'0 0.0
2017-Oct-14 13:56N 50°54' W 001°26'0 0.0
2017-Oct-14 13:26N 50°54' W 001°26'0 0.0
2017-Oct-14 12:56N 50°54' W 001°26'0 0.0
2017-Oct-14 12:26N 50°54' W 001°26'0 0.0
2017-Oct-14 11:56N 50°54' W 001°26'0 0.0
2017-Oct-14 11:26N 50°54' W 001°26'0 0.0
2017-Oct-14 10:56N 50°54' W 001°26'0 0.0
2017-Oct-14 10:26N 50°54' W 001°26'0 0.0
2017-Oct-14 09:26N 50°54' W 001°26'0 0.0
2017-Oct-14 08:56N 50°54' W 001°26'0 0.0
2017-Oct-14 08:26N 50°54' W 001°26'0 0.0
2017-Oct-14 07:56N 50°54' W 001°26'0 0.0
2017-Oct-14 07:26N 50°54' W 001°26'0 0.0
2017-Oct-14 06:56N 50°54' W 001°26'0 0.0
2017-Oct-14 06:26N 50°54' W 001°26'0 0.0
2017-Oct-14 05:56N 50°54' W 001°26'0 0.1
2017-Oct-14 05:31N 50°54' W 001°26'2 4.6
2017-Oct-14 05:01N 50°53' W 001°23'510.1
2017-Oct-14 04:30N 50°49' W 001°18'4 8.1
2017-Oct-14 04:01N 50°46' W 001°14'714.9
2017-Oct-14 03:31N 50°44' W 001°02'5 9.9
2017-Oct-14 03:00N 50°39' W 000°58'611.9
2017-Oct-14 02:30N 50°33' W 000°60'612.4
2017-Oct-14 01:59N 50°30' W 001°08'714.7
2017-Oct-14 01:30N 50°28' W 001°19'1214.7
2017-Oct-14 00:41N 50°25' W 001°37'514.8
2017-Oct-14 00:20N 50°24' W 001°45'514.6
2017-Oct-14 00:00N 50°23' W 001°52'814.9
2017-Oct-13 23:30N 50°21' W 002°04'1314.3
2017-Oct-13 22:35N 50°18' W 002°24'116.4
2017-Oct-13 22:30N 50°18' W 002°26'816.3
2017-Oct-13 22:00N 50°16' W 002°38'816.2
2017-Oct-13 21:31N 50°14' W 002°50'816.1
2017-Oct-13 21:00N 50°11' W 003°02'816.0
2017-Oct-13 20:30N 50°07' W 003°13'815.9
2017-Oct-13 20:00N 50°02' W 003°23'815.2
2017-Oct-13 19:30N 49°59' W 003°33'815.9
2017-Oct-13 18:59N 49°54' W 003°44'1416.2
2017-Oct-13 18:08N 49°47' W 004°02'1816.1
2017-Oct-13 17:02N 49°38' W 004°25'416.0
2017-Oct-13 16:48N 49°36' W 004°30'816.0
2017-Oct-13 16:18N 49°31' W 004°41'1216.0
2017-Oct-13 15:31N 49°25' W 004°57'1116.3
2017-Oct-13 14:50N 49°19' W 005°12'516.7
2017-Oct-13 14:30N 49°16' W 005°19'916.9
2017-Oct-13 13:59N 49°11' W 005°30'816.8
2017-Oct-13 13:30N 49°07' W 005°40'817.0
2017-Oct-13 13:00N 49°02' W 005°51'1016.4
2017-Oct-13 12:25N 48°55' W 006°01'716.9
2017-Oct-13 12:00N 48°49' W 006°06'917.1
2017-Oct-13 11:28N 48°41' W 006°13'1117.0
2017-Oct-13 10:48N 48°31' W 006°22'617.1
2017-Oct-13 10:26N 48°26' W 006°26'1113.4
2017-Oct-13 09:38N 48°16' W 006°34'17 9.0
2017-Oct-13 07:48N 48°02' W 006°47'11216.4
2017-Oct-13 01:00N 46°24' W 008°06'39318.8 190 / 121023.910.8 17.516.718.0
2017-Oct-12 04:05N 40°33' W 012°08'118.7
2017-Oct-12 04:01N 40°32' W 012°09'4618.6
2017-Oct-12 01:31N 39°49' W 012°32'018.6
2017-Oct-12 01:30N 39°49' W 012°33'1018.5
2017-Oct-12 00:57N 39°39' W 012°38'818.3
2017-Oct-12 00:30N 39°32' W 012°42'918.4
2017-Oct-12 00:00N 39°23' W 012°47'918.5
2017-Oct-11 23:30N 39°15' W 012°51'918.5
2017-Oct-11 23:00N 39°06' W 012°56'918.2
2017-Oct-11 22:30N 38°58' W 013°00'918.1
2017-Oct-11 22:00N 38°50' W 013°05'918.4
2017-Oct-11 21:30N 38°41' W 013°09'918.5
2017-Oct-11 21:00N 38°33' W 013°14'917.1
2017-Oct-11 20:30N 38°25' W 013°18'816.8
2017-Oct-11 20:00N 38°17' W 013°22'816.9
2017-Oct-11 19:30N 38°09' W 013°27'917.0
2017-Oct-11 19:00N 38°01' W 013°31'2117.2
2017-Oct-11 17:46N 37°42' W 013°41'517.4
2017-Oct-11 17:30N 37°38' W 013°43'  
2017-Oct-08 17:48N 28°60' W 016°08'718.2
2017-Oct-08 17:25N 28°53' W 016°07'818.4
2017-Oct-08 17:00N 28°45' W 016°05'917.7
2017-Oct-08 16:30N 28°37' W 016°05'816.2
2017-Oct-08 15:59N 28°29' W 016°09'5 9.4
2017-Oct-08 15:29N 28°28' W 016°15'0 0.2
2017-Oct-08 14:55N 28°28' W 016°15'0 0.0
2017-Oct-08 13:13N 28°28' W 016°15'0 0.0
2017-Oct-08 12:55N 28°28' W 016°15'0 0.0
2017-Oct-08 12:25N 28°28' W 016°15'0 0.0
2017-Oct-08 11:58N 28°28' W 016°15'0 0.0
2017-Oct-08 11:28N 28°28' W 016°15'0 0.0
2017-Oct-08 10:55N 28°28' W 016°15'0 0.0
2017-Oct-08 09:31N 28°28' W 016°15'0 0.0
2017-Oct-08 09:13N 28°28' W 016°15'0 0.0
2017-Oct-08 07:58N 28°28' W 016°15'0 0.0
2017-Oct-08 06:50N 28°28' W 016°15'0 0.3
2017-Oct-08 06:30N 28°28' W 016°15'2 4.1
2017-Oct-08 06:00N 28°28' W 016°12'610.6
2017-Oct-08 05:27N 28°26' W 016°06'512.0
2017-Oct-08 05:00N 28°24' W 016°00'611.2
2017-Oct-08 04:30N 28°27' W 015°55'612.1
2017-Oct-08 03:59N 28°32' W 015°51'611.9
2017-Oct-08 03:30N 28°37' W 015°46'611.2
2017-Oct-08 03:00N 28°38' W 015°40'511.1
2017-Oct-08 02:30N 28°39' W 015°34'611.0
2017-Oct-08 02:00N 28°39' W 015°28'511.0
2017-Oct-08 01:30N 28°40' W 015°21'611.0
2017-Oct-08 01:00N 28°41' W 015°15'510.9
2017-Oct-08 00:30N 28°41' W 015°09'611.1
2017-Oct-08 00:00N 28°42' W 015°02'612.1
2017-Oct-07 23:29N 28°43' W 014°55'713.2
2017-Oct-07 22:56N 28°44' W 014°47'2711.7
2017-Oct-07 20:37N 28°47' W 014°17'511.1
2017-Oct-07 20:10N 28°48' W 014°11'211.2
2017-Oct-07 20:00N 28°48' W 014°09'711.2
2017-Oct-07 19:25N 28°48' W 014°01'511.1
2017-Oct-07 18:59N 28°48' W 013°56'510.7
2017-Oct-07 18:30N 28°48' W 013°50'510.1
2017-Oct-07 18:00N 28°48' W 013°44'510.6
2017-Oct-07 17:30N 28°42' W 013°44'1111.5
2017-Oct-07 16:31N 28°31' W 013°46'3 0.3
2017-Oct-07 06:41N 28°31' W 013°43'7315.5
2017-Oct-07 02:00N 29°30' W 012°54'   310 / 81016.610.8 21.017.823.0
Track history (hours):
 
Tides and Currents Weather Stations Pressure Air Temp Water Temp Dewpoint Dewpoint Depression Visibility Wind Speed Wind Dir Waves Ship Positions

Royal Princess

Last reported at 2017-Oct-16 19:21 UTC. Time now 2017-Oct-18 23:41 UTC.
Position N 43°45' W 005°21'.

Type: Passenger vessel. MMSI: 310530000.

Date/timePositionNaut miles runAvg speedWind from/ knotsBaromVisibWave heightAir tempDewpointWater temp
2017-Oct-16 19:21N 43°45' W 005°21'718.1
2017-Oct-16 18:57N 43°44' W 005°10'918.5
2017-Oct-16 18:27N 43°43' W 004°58'1818.7
2017-Oct-16 17:28N 43°41' W 004°33'1018.8
2017-Oct-16 16:58N 43°40' W 004°19'918.9
2017-Oct-16 16:30N 43°40' W 004°08'918.5
2017-Oct-16 16:00N 43°38' W 003°55'918.4
2017-Oct-16 15:30N 43°36' W 003°43'918.4
2017-Oct-16 15:00N 43°34' W 003°30'917.8
2017-Oct-16 14:30N 43°32' W 003°19'1615.7
2017-Oct-16 13:30N 43°21' W 003°02'1 2.0
2017-Oct-16 13:00N 43°20' W 003°01'0 0.0
2017-Oct-16 12:30N 43°20' W 003°01'0 0.0
2017-Oct-16 12:00N 43°20' W 003°01'0 0.0
2017-Oct-16 11:30N 43°20' W 003°01'0 0.0
2017-Oct-16 11:00N 43°20' W 003°01'0 0.0
2017-Oct-16 10:30N 43°20' W 003°01'0 0.0
2017-Oct-16 10:00N 43°20' W 003°01'0 0.0
2017-Oct-16 09:30N 43°20' W 003°01'0 0.0
2017-Oct-16 09:00N 43°20' W 003°01'0 0.0
2017-Oct-16 08:30N 43°20' W 003°01'0 0.0
2017-Oct-16 07:57N 43°20' W 003°01'0 0.0
2017-Oct-16 07:27N 43°20' W 003°01'0 0.0
2017-Oct-16 07:00N 43°20' W 003°01'0 0.0
2017-Oct-16 06:30N 43°20' W 003°01'0 0.0
2017-Oct-16 06:00N 43°20' W 003°01'0 0.0
2017-Oct-16 05:30N 43°20' W 003°01'0 0.6
2017-Oct-16 05:00N 43°21' W 003°02'4 7.9
2017-Oct-16 04:30N 43°24' W 003°05'5 9.8
2017-Oct-16 04:00N 43°28' W 003°08'816.2
2017-Oct-16 03:31N 43°36' W 003°12'815.9
2017-Oct-16 03:00N 43°43' W 003°16'816.2
2017-Oct-16 02:30N 43°51' W 003°19'816.2
2017-Oct-16 02:00N 43°59' W 003°23'1616.2
2017-Oct-16 01:00N 44°14' W 003°31'4016.3
2017-Oct-15 22:31N 44°51' W 003°51'116.0
2017-Oct-15 22:29N 44°52' W 003°51'916.0
2017-Oct-15 21:55N 45°01' W 003°55'716.2
2017-Oct-15 21:29N 45°07' W 003°59'816.3
2017-Oct-15 21:00N 45°14' W 004°04'816.4
2017-Oct-15 20:31N 45°22' W 004°07'816.6
2017-Oct-15 20:00N 45°30' W 004°11'816.1
2017-Oct-15 19:30N 45°37' W 004°15'816.4
2017-Oct-15 19:00N 45°45' W 004°19'816.5
2017-Oct-15 18:31N 45°53' W 004°23'816.3
2017-Oct-15 18:00N 46°01' W 004°27'816.8
2017-Oct-15 17:30N 46°08' W 004°31'917.3
2017-Oct-15 17:00N 46°17' W 004°35'817.4
2017-Oct-15 16:30N 46°25' W 004°40'917.0
2017-Oct-15 16:00N 46°33' W 004°44'816.8
2017-Oct-15 15:30N 46°41' W 004°48'817.0
2017-Oct-15 15:00N 46°49' W 004°52'1717.2
2017-Oct-15 14:00N 47°05' W 005°01'917.0
2017-Oct-15 13:30N 47°13' W 005°05'816.9
2017-Oct-15 13:00N 47°21' W 005°10'816.9
2017-Oct-15 12:30N 47°29' W 005°14'816.7
2017-Oct-15 12:01N 47°36' W 005°18'816.4
2017-Oct-15 11:30N 47°44' W 005°22'816.0
2017-Oct-15 11:00N 47°52' W 005°26'815.1
2017-Oct-15 10:30N 47°59' W 005°27'815.3
2017-Oct-15 10:01N 48°07' W 005°26'815.2
2017-Oct-15 09:30N 48°14' W 005°26'815.2
2017-Oct-15 09:00N 48°22' W 005°26'1214.9
2017-Oct-15 08:13N 48°33' W 005°21'516.3
2017-Oct-15 07:54N 48°37' W 005°16'616.3
2017-Oct-15 07:30N 48°42' W 005°09'816.6
2017-Oct-15 07:00N 48°47' W 004°60'816.9
2017-Oct-15 06:30N 48°53' W 004°50'816.8
2017-Oct-15 06:00N 48°59' W 004°40'816.7
2017-Oct-15 05:30N 49°04' W 004°31'816.4
2017-Oct-15 05:00N 49°10' W 004°22'816.0
2017-Oct-15 04:30N 49°15' W 004°12'815.5
2017-Oct-15 04:00N 49°19' W 004°03'612.7
2017-Oct-15 03:30N 49°24' W 003°56'612.5
2017-Oct-15 03:00N 49°28' W 003°49'612.5
2017-Oct-15 02:30N 49°33' W 003°42'612.5
2017-Oct-15 02:01N 49°37' W 003°35'612.3
2017-Oct-15 01:31N 49°41' W 003°28'612.5
2017-Oct-15 01:01N 49°45' W 003°21'713.2
2017-Oct-15 00:31N 49°49' W 003°13'713.9
2017-Oct-15 00:01N 49°54' W 003°05'714.3
2017-Oct-14 23:31N 49°58' W 002°56'815.1
2017-Oct-14 23:00N 50°00' W 002°45'815.6
2017-Oct-14 22:31N 50°02' W 002°33'1216.1
2017-Oct-14 21:47N 50°06' W 002°16'516.5
2017-Oct-14 21:30N 50°08' W 002°09'816.6
2017-Oct-14 21:01N 50°12' W 001°58'816.2
2017-Oct-14 20:31N 50°16' W 001°47'815.9
2017-Oct-14 20:01N 50°20' W 001°37'815.1
2017-Oct-14 19:30N 50°25' W 001°28'815.2
2017-Oct-14 19:01N 50°28' W 001°17'714.7
2017-Oct-14 18:30N 50°32' W 001°07'713.8
2017-Oct-14 18:01N 50°37' W 001°00'611.0
2017-Oct-14 17:30N 50°43' W 000°59'714.2
2017-Oct-14 17:00N 50°46' W 001°09'612.2
2017-Oct-14 16:30N 50°48' W 001°18'5 9.8
2017-Oct-14 16:00N 50°52' W 001°22'3 6.7
2017-Oct-14 15:30N 50°54' W 001°26'0 0.4
2017-Oct-14 14:56N 50°54' W 001°26'0 0.0
2017-Oct-14 14:26N 50°54' W 001°26'0 0.0
2017-Oct-14 13:56N 50°54' W 001°26'0 0.0
2017-Oct-14 13:26N 50°54' W 001°26'0 0.0
2017-Oct-14 12:56N 50°54' W 001°26'0 0.0
2017-Oct-14 12:26N 50°54' W 001°26'0 0.0
2017-Oct-14 11:56N 50°54' W 001°26'0 0.0
2017-Oct-14 11:26N 50°54' W 001°26'0 0.0
2017-Oct-14 10:56N 50°54' W 001°26'0 0.0
2017-Oct-14 10:26N 50°54' W 001°26'0 0.0
2017-Oct-14 09:26N 50°54' W 001°26'0 0.0
2017-Oct-14 08:56N 50°54' W 001°26'0 0.0
2017-Oct-14 08:26N 50°54' W 001°26'0 0.0
2017-Oct-14 07:56N 50°54' W 001°26'0 0.0
2017-Oct-14 07:26N 50°54' W 001°26'0 0.0
2017-Oct-14 06:56N 50°54' W 001°26'0 0.0
2017-Oct-14 06:26N 50°54' W 001°26'0 0.0
2017-Oct-14 05:56N 50°54' W 001°26'0 0.1
2017-Oct-14 05:31N 50°54' W 001°26'2 4.6
2017-Oct-14 05:01N 50°53' W 001°23'510.1
2017-Oct-14 04:30N 50°49' W 001°18'4 8.1
2017-Oct-14 04:01N 50°46' W 001°14'714.9
2017-Oct-14 03:31N 50°44' W 001°02'5 9.9
2017-Oct-14 03:00N 50°39' W 000°58'611.9
2017-Oct-14 02:30N 50°33' W 000°60'612.4
2017-Oct-14 01:59N 50°30' W 001°08'714.7
2017-Oct-14 01:30N 50°28' W 001°19'1214.7
2017-Oct-14 00:41N 50°25' W 001°37'514.8
2017-Oct-14 00:20N 50°24' W 001°45'514.6
2017-Oct-14 00:00N 50°23' W 001°52'814.9
2017-Oct-13 23:30N 50°21' W 002°04'1314.3
2017-Oct-13 22:35N 50°18' W 002°24'116.4
2017-Oct-13 22:30N 50°18' W 002°26'816.3
2017-Oct-13 22:00N 50°16' W 002°38'816.2
2017-Oct-13 21:31N 50°14' W 002°50'816.1
2017-Oct-13 21:00N 50°11' W 003°02'816.0
2017-Oct-13 20:30N 50°07' W 003°13'815.9
2017-Oct-13 20:00N 50°02' W 003°23'815.2
2017-Oct-13 19:30N 49°59' W 003°33'815.9
2017-Oct-13 18:59N 49°54' W 003°44'1416.2
2017-Oct-13 18:08N 49°47' W 004°02'1816.1
2017-Oct-13 17:02N 49°38' W 004°25'416.0
2017-Oct-13 16:48N 49°36' W 004°30'816.0
2017-Oct-13 16:18N 49°31' W 004°41'1216.0
2017-Oct-13 15:31N 49°25' W 004°57'1116.3
2017-Oct-13 14:50N 49°19' W 005°12'516.7
2017-Oct-13 14:30N 49°16' W 005°19'916.9
2017-Oct-13 13:59N 49°11' W 005°30'816.8
2017-Oct-13 13:30N 49°07' W 005°40'817.0
2017-Oct-13 13:00N 49°02' W 005°51'1016.4
2017-Oct-13 12:25N 48°55' W 006°01'716.9
2017-Oct-13 12:00N 48°49' W 006°06'917.1
2017-Oct-13 11:28N 48°41' W 006°13'1117.0
2017-Oct-13 10:48N 48°31' W 006°22'617.1
2017-Oct-13 10:26N 48°26' W 006°26'1113.4
2017-Oct-13 09:38N 48°16' W 006°34'17 9.0
2017-Oct-13 07:48N 48°02' W 006°47'11216.4
2017-Oct-13 01:00N 46°24' W 008°06'39318.8 190 / 121023.910.8 17.516.718.0
2017-Oct-12 04:05N 40°33' W 012°08'118.7
2017-Oct-12 04:01N 40°32' W 012°09'4618.6
2017-Oct-12 01:31N 39°49' W 012°32'018.6
2017-Oct-12 01:30N 39°49' W 012°33'1018.5
2017-Oct-12 00:57N 39°39' W 012°38'818.3
2017-Oct-12 00:30N 39°32' W 012°42'918.4
2017-Oct-12 00:00N 39°23' W 012°47'918.5
2017-Oct-11 23:30N 39°15' W 012°51'918.5
2017-Oct-11 23:00N 39°06' W 012°56'918.2
2017-Oct-11 22:30N 38°58' W 013°00'918.1
2017-Oct-11 22:00N 38°50' W 013°05'918.4
2017-Oct-11 21:30N 38°41' W 013°09'918.5
2017-Oct-11 21:00N 38°33' W 013°14'917.1
2017-Oct-11 20:30N 38°25' W 013°18'816.8
2017-Oct-11 20:00N 38°17' W 013°22'816.9
2017-Oct-11 19:30N 38°09' W 013°27'917.0
2017-Oct-11 19:00N 38°01' W 013°31'2117.2
2017-Oct-11 17:46N 37°42' W 013°41'517.4
2017-Oct-11 17:30N 37°38' W 013°43'  
2017-Oct-08 17:48N 28°60' W 016°08'718.2
2017-Oct-08 17:25N 28°53' W 016°07'818.4
2017-Oct-08 17:00N 28°45' W 016°05'917.7
2017-Oct-08 16:30N 28°37' W 016°05'816.2
2017-Oct-08 15:59N 28°29' W 016°09'5 9.4
2017-Oct-08 15:29N 28°28' W 016°15'0 0.2
2017-Oct-08 14:55N 28°28' W 016°15'0 0.0
2017-Oct-08 13:13N 28°28' W 016°15'0 0.0
2017-Oct-08 12:55N 28°28' W 016°15'0 0.0
2017-Oct-08 12:25N 28°28' W 016°15'0 0.0
2017-Oct-08 11:58N 28°28' W 016°15'0 0.0
2017-Oct-08 11:28N 28°28' W 016°15'0 0.0
2017-Oct-08 10:55N 28°28' W 016°15'0 0.0
2017-Oct-08 09:31N 28°28' W 016°15'0 0.0
2017-Oct-08 09:13N 28°28' W 016°15'0 0.0
2017-Oct-08 07:58N 28°28' W 016°15'0 0.0
2017-Oct-08 06:50N 28°28' W 016°15'0 0.3
2017-Oct-08 06:30N 28°28' W 016°15'2 4.1
2017-Oct-08 06:00N 28°28' W 016°12'610.6
2017-Oct-08 05:27N 28°26' W 016°06'512.0
2017-Oct-08 05:00N 28°24' W 016°00'611.2
2017-Oct-08 04:30N 28°27' W 015°55'612.1
2017-Oct-08 03:59N 28°32' W 015°51'611.9
2017-Oct-08 03:30N 28°37' W 015°46'611.2
2017-Oct-08 03:00N 28°38' W 015°40'511.1
2017-Oct-08 02:30N 28°39' W 015°34'611.0
2017-Oct-08 02:00N 28°39' W 015°28'511.0
2017-Oct-08 01:30N 28°40' W 015°21'611.0
2017-Oct-08 01:00N 28°41' W 015°15'510.9
2017-Oct-08 00:30N 28°41' W 015°09'611.1
2017-Oct-08 00:00N 28°42' W 015°02'612.1
2017-Oct-07 23:29N 28°43' W 014°55'713.2
2017-Oct-07 22:56N 28°44' W 014°47'2711.7
2017-Oct-07 20:37N 28°47' W 014°17'511.1
2017-Oct-07 20:10N 28°48' W 014°11'211.2
2017-Oct-07 20:00N 28°48' W 014°09'711.2
2017-Oct-07 19:25N 28°48' W 014°01'511.1
2017-Oct-07 18:59N 28°48' W 013°56'510.7
2017-Oct-07 18:30N 28°48' W 013°50'510.1
2017-Oct-07 18:00N 28°48' W 013°44'510.6
2017-Oct-07 17:30N 28°42' W 013°44'1111.5
2017-Oct-07 16:31N 28°31' W 013°46'3 0.3
2017-Oct-07 06:41N 28°31' W 013°43'7315.5
2017-Oct-07 02:00N 29°30' W 012°54'   310 / 81016.610.8 21.017.823.0

Dump ship's entire track history